Time;durP1;ratioP1;P1;durP2;ratioP2;P2;SDS_P1;SDS_P2;PMS_P1;PMS_P2;Temp;Humidity;BMP_temperature;BMP_pressure;BME280_temperature;BME280_humidity;BME280_pressure;Samples;Min_cycle;Max_cycle;Signal;HPM_P1;HPM_P2
2022/05/09 00:00:17;;;;;;;8.40;3.15;;;;;;;;;;5035250;28;93004;-73
2022/05/09 00:02:46;;;;;;;12.25;4.13;;;;;;;;;;5031293;28;93249;-73
2022/05/09 00:05:15;;;;;;;14.00;3.72;;;;;;;;;;5032316;28;92493;-73
2022/05/09 00:07:41;;;;;;;14.93;3.08;;;;;;;;;;5031398;28;93376;-73
2022/05/09 00:10:12;;;;;;;19.17;4.15;;;;;;;;;;5031931;28;93365;-73
2022/05/09 00:12:38;;;;;;;12.95;4.00;;;;;;;;;;5031778;28;92522;-73
2022/05/09 00:15:05;;;;;;;17.15;3.67;;;;;;;;;;5033963;28;95285;-73
2022/05/09 00:17:32;;;;;;;14.02;3.80;;;;;;;;;;5034838;28;93617;-73
2022/05/09 00:19:58;;;;;;;13.02;3.75;;;;;;;;;;5035302;28;92487;-73
2022/05/09 00:22:25;;;;;;;6.70;2.97;;;;;;;;;;5037241;28;93596;-73
2022/05/09 00:24:51;;;;;;;16.58;3.50;;;;;;;;;;5035121;27;92522;-73
2022/05/09 00:27:18;;;;;;;14.20;3.85;;;;;;;;;;5035529;28;93653;-73
2022/05/09 00:29:44;;;;;;;10.57;3.13;;;;;;;;;;5034601;28;93327;-73
2022/05/09 00:32:10;;;;;;;13.18;3.33;;;;;;;;;;5035988;28;91743;-73
2022/05/09 00:34:37;;;;;;;19.25;3.60;;;;;;;;;;5035390;28;93188;-73
2022/05/09 00:37:04;;;;;;;13.18;3.50;;;;;;;;;;5034577;27;94105;-73
2022/05/09 00:39:31;;;;;;;10.75;3.15;;;;;;;;;;5033674;28;94855;-73
2022/05/09 00:42:07;;;;;;;17.67;3.38;;;;;;;;;;5034716;28;95276;-72
2022/05/09 00:44:34;;;;;;;14.32;3.50;;;;;;;;;;5038232;28;94367;-73
2022/05/09 00:47:01;;;;;;;9.68;3.40;;;;;;;;;;5034802;28;93768;-73
2022/05/09 00:49:37;;;;;;;11.55;3.58;;;;;;;;;;5033516;27;93424;-73
2022/05/09 00:52:04;;;;;;;14.93;4.85;;;;;;;;;;5035209;28;92469;-73
2022/05/09 00:54:37;;;;;;;15.35;4.32;;;;;;;;;;5034577;28;92408;-73
2022/05/09 00:57:09;;;;;;;13.32;3.22;;;;;;;;;;5035044;28;92851;-73
2022/05/09 00:59:36;;;;;;;13.82;3.88;;;;;;;;;;5034738;28;92503;-73
2022/05/09 01:02:03;;;;;;;16.20;3.72;;;;;;;;;;5034609;28;93395;-73
2022/05/09 01:04:32;;;;;;;13.95;3.75;;;;;;;;;;5032413;28;96384;-73
2022/05/09 01:06:59;;;;;;;14.30;4.55;;;;;;;;;;5037812;28;92504;-73
2022/05/09 01:09:26;;;;;;;10.38;3.63;;;;;;;;;;5034480;27;93294;-73
2022/05/09 01:11:52;;;;;;;11.95;3.50;;;;;;;;;;5034872;28;93030;-73
2022/05/09 01:14:20;;;;;;;16.85;4.40;;;;;;;;;;5035163;28;93939;-73
2022/05/09 01:16:51;;;;;;;11.33;4.00;;;;;;;;;;5034876;28;94052;-73
2022/05/09 01:19:31;;;;;;;17.70;3.50;;;;;;;;;;5034478;28;92895;-73
2022/05/09 01:21:58;;;;;;;11.90;4.25;;;;;;;;;;5035586;28;94256;-73
2022/05/09 01:24:26;;;;;;;14.20;3.70;;;;;;;;;;5032480;27;93195;-73
2022/05/09 01:26:53;;;;;;;17.35;3.33;;;;;;;;;;5034636;28;92479;-73
2022/05/09 01:29:36;;;;;;;18.17;3.83;;;;;;;;;;5036755;28;95882;-73
2022/05/09 01:32:02;;;;;;;12.52;4.25;;;;;;;;;;5034372;28;92976;-73
2022/05/09 01:34:30;;;;;;;11.68;3.53;;;;;;;;;;5034537;28;93738;-73
2022/05/09 01:37:00;;;;;;;12.43;3.88;;;;;;;;;;5034622;28;94384;-73
2022/05/09 01:39:29;;;;;;;20.52;4.32;;;;;;;;;;5033839;28;92510;-73
2022/05/09 01:41:56;;;;;;;17.95;4.60;;;;;;;;;;5034684;28;94434;-73
2022/05/09 01:44:23;;;;;;;14.75;5.72;;;;;;;;;;5034171;28;94093;-73
2022/05/09 01:49:35;;;;;;;18.48;4.15;;;;;;;;;;5034369;28;93273;-73
2022/05/09 01:52:03;;;;;;;15.55;4.20;;;;;;;;;;5036759;27;93370;-73
2022/05/09 01:54:30;;;;;;;18.80;5.13;;;;;;;;;;5031646;28;94810;-73
2022/05/09 01:56:56;;;;;;;12.73;6.05;;;;;;;;;;5033586;28;93761;-73
2022/05/09 01:59:22;;;;;;;18.80;4.22;;;;;;;;;;5033619;28;92663;-73
2022/05/09 02:01:54;;;;;;;11.23;3.70;;;;;;;;;;5034107;28;93072;-73
2022/05/09 02:04:22;;;;;;;;;;;;;;;;;;5034074;28;94167;-73
2022/05/09 02:06:48;;;;;;;11.93;4.25;;;;;;;;;;5034050;28;118956;-73
2022/05/09 02:09:15;;;;;;;13.40;4.03;;;;;;;;;;5034175;28;92828;-73
2022/05/09 02:11:41;;;;;;;11.52;3.55;;;;;;;;;;5036947;28;92581;-73
2022/05/09 02:14:08;;;;;;;20.90;4.43;;;;;;;;;;5033737;28;92498;-73
2022/05/09 02:16:35;;;;;;;11.80;4.20;;;;;;;;;;5033298;28;93315;-73
2022/05/09 02:19:03;;;;;;;18.70;4.93;;;;;;;;;;5032271;28;94836;-73
2022/05/09 02:21:29;;;;;;;14.27;4.10;;;;;;;;;;5033155;28;96414;-73
2022/05/09 02:23:56;;;;;;;12.70;3.97;;;;;;;;;;5033738;28;94746;-73
2022/05/09 02:26:24;;;;;;;11.63;4.40;;;;;;;;;;5033801;28;92527;-73
2022/05/09 02:28:50;;;;;;;14.70;4.25;;;;;;;;;;5032836;28;93177;-73
2022/05/09 02:31:20;;;;;;;8.55;4.75;;;;;;;;;;5033706;28;94817;-73
2022/05/09 02:33:47;;;;;;;10.60;3.42;;;;;;;;;;5036543;28;92490;-72
2022/05/09 02:36:14;;;;;;;11.70;4.25;;;;;;;;;;5033011;27;91745;-73
2022/05/09 02:38:40;;;;;;;15.38;4.70;;;;;;;;;;5033162;28;92547;-73
2022/05/09 02:41:06;;;;;;;20.67;4.72;;;;;;;;;;5033434;28;93240;-73
2022/05/09 02:43:35;;;;;;;18.13;4.75;;;;;;;;;;5030613;28;95276;-73
2022/05/09 02:46:03;;;;;;;18.48;4.68;;;;;;;;;;5033613;28;92462;-73
2022/05/09 02:48:31;;;;;;;12.60;4.80;;;;;;;;;;5032522;28;94038;-73
2022/05/09 02:50:57;;;;;;;13.85;5.20;;;;;;;;;;5033461;28;94216;-73
2022/05/09 02:53:24;;;;;;;14.60;4.25;;;;;;;;;;5033336;28;92554;-73
2022/05/09 02:55:50;;;;;;;14.45;5.88;;;;;;;;;;5035703;28;94042;-73
2022/05/09 02:58:17;;;;;;;14.05;4.93;;;;;;;;;;5032852;28;92516;-73
2022/05/09 03:00:43;;;;;;;8.82;4.07;;;;;;;;;;5033234;28;93117;-72
2022/05/09 03:05:56;;;;;;;11.25;4.18;;;;;;;;;;5033397;28;92497;-73
2022/05/09 03:08:23;;;;;;;12.95;4.20;;;;;;;;;;5031571;28;94838;-73
2022/05/09 03:10:49;;;;;;;14.82;5.18;;;;;;;;;;5032330;28;94164;-73
2022/05/09 03:13:15;;;;;;;16.10;4.90;;;;;;;;;;5032794;28;92489;-73
2022/05/09 03:15:43;;;;;;;10.38;4.60;;;;;;;;;;5032906;28;93970;-73
2022/05/09 03:18:10;;;;;;;17.55;4.75;;;;;;;;;;5036002;28;93876;-73
2022/05/09 03:20:37;;;;;;;9.88;4.28;;;;;;;;;;5033100;28;93841;-73
2022/05/09 03:23:04;;;;;;;14.25;6.15;;;;;;;;;;5033004;28;94731;-73
2022/05/09 03:25:31;;;;;;;21.88;5.53;;;;;;;;;;5032854;28;92353;-73
2022/05/09 03:27:57;;;;;;;17.35;4.85;;;;;;;;;;5033021;28;93288;-73
2022/05/09 03:30:24;;;;;;;14.98;4.30;;;;;;;;;;5032501;28;94315;-73
2022/05/09 03:32:52;;;;;;;23.92;4.97;;;;;;;;;;5030750;28;94969;-73
2022/05/09 03:35:18;;;;;;;16.38;6.10;;;;;;;;;;5032757;28;96504;-73
2022/05/09 03:37:45;;;;;;;22.92;5.43;;;;;;;;;;5031696;28;94293;-73
2022/05/09 03:40:11;;;;;;;14.05;4.93;;;;;;;;;;5036072;28;92443;-73
2022/05/09 03:42:38;;;;;;;15.60;5.18;;;;;;;;;;5032325;28;94295;-73
2022/05/09 03:45:05;;;;;;;21.58;5.10;;;;;;;;;;5032044;28;92483;-72
2022/05/09 03:47:32;;;;;;;21.30;5.07;;;;;;;;;;5031192;28;93153;-73
2022/05/09 03:49:58;;;;;;;12.00;5.15;;;;;;;;;;5033114;28;93438;-72
2022/05/09 03:52:26;;;;;;;10.60;5.80;;;;;;;;;;5032024;28;93537;-73
2022/05/09 03:54:52;;;;;;;19.58;5.53;;;;;;;;;;5032450;28;93291;-73
2022/05/09 03:57:18;;;;;;;15.10;5.35;;;;;;;;;;5030904;28;96676;-72
2022/05/09 03:59:45;;;;;;;22.95;6.70;;;;;;;;;;5031245;28;93485;-73
2022/05/09 04:02:12;;;;;;;10.68;4.50;;;;;;;;;;5035572;28;93763;-73
2022/05/09 04:04:38;;;;;;;12.18;5.00;;;;;;;;;;5032452;28;92458;-73
2022/05/09 04:07:04;;;;;;;22.45;5.40;;;;;;;;;;5031899;28;93767;-72
2022/05/09 04:09:31;;;;;;;13.52;5.60;;;;;;;;;;5032204;28;94698;-73
2022/05/09 04:11:58;;;;;;;17.02;5.05;;;;;;;;;;5032646;28;92597;-73
2022/05/09 04:17:10;;;;;;;15.88;5.20;;;;;;;;;;5032008;28;93479;-73
2022/05/09 04:19:37;;;;;;;17.75;5.00;;;;;;;;;;5032283;28;92512;-73
2022/05/09 04:22:04;;;;;;;20.50;5.50;;;;;;;;;;5032113;27;95353;-73
2022/05/09 04:24:30;;;;;;;16.05;5.43;;;;;;;;;;5031688;28;92518;-72
2022/05/09 04:26:57;;;;;;;10.65;5.03;;;;;;;;;;5031341;28;93609;-73
2022/05/09 04:29:26;;;;;;;12.90;5.43;;;;;;;;;;5031518;28;93286;-73
2022/05/09 04:31:52;;;;;;;12.43;4.88;;;;;;;;;;5032371;28;92912;-73
2022/05/09 04:34:19;;;;;;;13.75;5.55;;;;;;;;;;5031066;28;93104;-73
2022/05/09 04:36:45;;;;;;;12.95;5.32;;;;;;;;;;5030903;28;93463;-72
2022/05/09 04:39:11;;;;;;;12.00;4.93;;;;;;;;;;5032719;28;91889;-72
2022/05/09 04:41:38;;;;;;;19.98;4.85;;;;;;;;;;5030615;28;92531;-73
2022/05/09 04:44:05;;;;;;;19.27;5.70;;;;;;;;;;5035205;28;94214;-73
2022/05/09 04:46:32;;;;;;;13.90;7.53;;;;;;;;;;5030170;28;94960;-73
2022/05/09 04:48:58;;;;;;;19.55;6.10;;;;;;;;;;5031140;28;94876;-73
2022/05/09 04:51:25;;;;;;;6.18;4.53;;;;;;;;;;5031723;28;92428;-72
2022/05/09 04:53:51;;;;;;;16.33;5.97;;;;;;;;;;5031651;28;93174;-73
2022/05/09 04:56:18;;;;;;;21.85;5.55;;;;;;;;;;5031228;28;94357;-73
2022/05/09 04:58:44;;;;;;;15.13;4.88;;;;;;;;;;5031728;27;92512;-73
2022/05/09 05:01:11;;;;;;;11.32;5.07;;;;;;;;;;5034197;28;92996;-72
2022/05/09 05:03:38;;;;;;;16.95;5.38;;;;;;;;;;5034812;28;93365;-73
2022/05/09 05:06:04;;;;;;;13.95;5.15;;;;;;;;;;5038329;28;92455;-73
2022/05/09 05:08:33;;;;;;;26.73;5.38;;;;;;;;;;5035097;28;94501;-73
2022/05/09 05:11:03;;;;;;;13.93;5.00;;;;;;;;;;5033058;28;94977;-73
2022/05/09 05:13:30;;;;;;;13.85;5.82;;;;;;;;;;5034604;28;95500;-73
2022/05/09 05:15:57;;;;;;;20.50;6.00;;;;;;;;;;5034983;28;94227;-73
2022/05/09 05:18:25;;;;;;;17.08;5.55;;;;;;;;;;5033787;27;92494;-73
2022/05/09 05:20:53;;;;;;;15.48;5.97;;;;;;;;;;5035180;28;93731;-73
2022/05/09 05:23:19;;;;;;;14.00;5.13;;;;;;;;;;5033589;28;93464;-73
2022/05/09 05:25:46;;;;;;;15.63;5.95;;;;;;;;;;5033977;28;92483;-73
2022/05/09 05:28:13;;;;;;;15.70;5.95;;;;;;;;;;5038337;28;93171;-73
2022/05/09 05:30:40;;;;;;;19.73;6.13;;;;;;;;;;5033788;28;92490;-73
2022/05/09 05:33:06;;;;;;;14.55;5.57;;;;;;;;;;5034780;28;93726;-73
2022/05/09 05:35:33;;;;;;;18.40;6.95;;;;;;;;;;5032703;28;96626;-73
2022/05/09 05:37:59;;;;;;;16.45;5.65;;;;;;;;;;5034185;28;92477;-73
2022/05/09 05:40:26;;;;;;;15.38;5.30;;;;;;;;;;5034825;28;93675;-74
2022/05/09 05:42:52;;;;;;;13.88;5.97;;;;;;;;;;5034418;28;93448;-73
2022/05/09 05:45:20;;;;;;;12.93;5.45;;;;;;;;;;5034118;28;92895;-73
2022/05/09 05:47:47;;;;;;;13.95;6.45;;;;;;;;;;5033947;28;93123;-73
2022/05/09 05:50:15;;;;;;;15.57;5.45;;;;;;;;;;5037548;28;94242;-73
2022/05/09 05:52:41;;;;;;;11.40;4.78;;;;;;;;;;5033534;28;93189;-73
2022/05/09 05:55:08;;;;;;;10.55;5.20;;;;;;;;;;5034372;28;94137;-73
2022/05/09 05:57:37;;;;;;;11.50;5.50;;;;;;;;;;5034344;28;92480;-73
2022/05/09 06:00:05;;;;;;;16.60;5.55;;;;;;;;;;5032151;28;94869;-73
2022/05/09 06:02:41;;;;;;;16.85;5.18;;;;;;;;;;5031945;28;92844;-73
2022/05/09 06:05:08;;;;;;;16.10;5.00;;;;;;;;;;5033506;28;92482;-73
2022/05/09 06:07:35;;;;;;;13.90;5.85;;;;;;;;;;5033495;28;94010;-73
2022/05/09 06:10:01;;;;;;;18.70;6.28;;;;;;;;;;5034241;28;94306;-73
2022/05/09 06:12:28;;;;;;;16.73;5.38;;;;;;;;;;5035656;27;92494;-73
2022/05/09 06:17:40;;;;;;;17.67;5.15;;;;;;;;;;5034439;28;91777;-72
2022/05/09 06:20:07;;;;;;;18.85;5.97;;;;;;;;;;5033574;27;93234;-73
2022/05/09 06:22:36;;;;;;;21.25;5.60;;;;;;;;;;5033598;28;94556;-73
2022/05/09 06:25:03;;;;;;;13.88;5.10;;;;;;;;;;5031830;27;94839;-73
2022/05/09 06:27:31;;;;;;;17.33;4.78;;;;;;;;;;5033114;28;96515;-73
2022/05/09 06:29:59;;;;;;;12.68;5.68;;;;;;;;;;5034058;28;94656;-73
2022/05/09 06:32:25;;;;;;;16.23;5.45;;;;;;;;;;5036978;28;92686;-73
2022/05/09 06:34:52;;;;;;;19.63;5.82;;;;;;;;;;5032666;28;93440;-73
2022/05/09 06:37:18;;;;;;;17.42;5.57;;;;;;;;;;5033903;28;92482;-73
2022/05/09 06:39:45;;;;;;;10.88;4.60;;;;;;;;;;5033366;28;94267;-73
2022/05/09 06:42:12;;;;;;;11.88;5.40;;;;;;;;;;5033357;28;93443;-73
2022/05/09 06:44:39;;;;;;;13.82;5.35;;;;;;;;;;5015330;28;92561;-74
2022/05/09 06:47:06;;;;;;;24.60;6.25;;;;;;;;;;5033699;28;93975;-72
2022/05/09 06:49:33;;;;;;;14.18;5.00;;;;;;;;;;5030707;28;96959;-72
2022/05/09 06:52:00;;;;;;;15.18;4.93;;;;;;;;;;5033534;28;92496;-72
2022/05/09 06:54:26;;;;;;;13.85;5.03;;;;;;;;;;5035530;28;93266;-72
2022/05/09 06:56:52;;;;;;;21.10;5.22;;;;;;;;;;5032680;28;92904;-72
2022/05/09 06:59:21;;;;;;;14.48;5.30;;;;;;;;;;5033324;28;92999;-72
2022/05/09 07:01:50;;;;;;;19.33;5.70;;;;;;;;;;5032538;28;94528;-72
2022/05/09 07:04:17;;;;;;;15.10;4.40;;;;;;;;;;5033442;28;92506;-72
2022/05/09 07:06:43;;;;;;;11.20;4.30;;;;;;;;;;5033653;28;94005;-72
2022/05/09 07:09:10;;;;;;;21.52;5.35;;;;;;;;;;5032218;28;93540;-73
2022/05/09 07:11:37;;;;;;;14.82;4.75;;;;;;;;;;5032942;28;92483;-73
2022/05/09 07:14:03;;;;;;;24.45;5.82;;;;;;;;;;5031495;28;94977;-73
2022/05/09 07:16:29;;;;;;;22.63;4.90;;;;;;;;;;5034333;28;93539;-73
2022/05/09 07:18:57;;;;;;;19.58;5.50;;;;;;;;;;5033112;28;94189;-73
2022/05/09 07:21:24;;;;;;;16.58;4.15;;;;;;;;;;5032677;28;94063;-73
2022/05/09 07:23:50;;;;;;;14.48;4.65;;;;;;;;;;5030842;28;92480;-73
2022/05/09 07:26:17;;;;;;;16.42;4.90;;;;;;;;;;5032763;28;93208;-73
2022/05/09 07:28:46;;;;;;;21.60;5.30;;;;;;;;;;5032900;28;96934;-73
2022/05/09 07:31:12;;;;;;;18.88;5.38;;;;;;;;;;5032973;28;92019;-73
2022/05/09 07:33:39;;;;;;;21.08;5.93;;;;;;;;;;5032237;28;93007;-73
2022/05/09 07:36:05;;;;;;;12.68;4.70;;;;;;;;;;5032735;28;93076;-73
2022/05/09 07:38:32;;;;;;;13.68;4.80;;;;;;;;;;5033682;28;94900;-73
2022/05/09 07:40:58;;;;;;;14.25;4.93;;;;;;;;;;5032438;28;93195;-73
2022/05/09 07:43:26;;;;;;;13.75;4.35;;;;;;;;;;5032306;28;92456;-74
2022/05/09 07:45:54;;;;;;;12.75;4.85;;;;;;;;;;5032641;28;94016;-73
2022/05/09 07:48:24;;;;;;;15.93;5.55;;;;;;;;;;5031845;28;93757;-73
2022/05/09 07:50:51;;;;;;;23.98;5.38;;;;;;;;;;5031484;28;92457;-73
2022/05/09 07:53:18;;;;;;;16.23;5.43;;;;;;;;;;5032861;28;93027;-73
2022/05/09 07:55:47;;;;;;;26.95;5.47;;;;;;;;;;5032946;28;92340;-74
2022/05/09 07:58:16;;;;;;;11.75;4.43;;;;;;;;;;5032132;28;92461;-73
2022/05/09 08:00:43;;;;;;;16.25;5.10;;;;;;;;;;5035085;28;93985;-74
2022/05/09 08:03:15;;;;;;;13.02;4.95;;;;;;;;;;5030666;28;94915;-73
2022/05/09 08:05:42;;;;;;;;;;;;;;;;;;5031906;28;96281;-73
2022/05/09 08:08:10;;;;;;;16.17;4.85;;;;;;;;;;5032768;28;123722;-74
2022/05/09 08:10:37;;;;;;;23.42;5.13;;;;;;;;;;5031987;27;92511;-73
2022/05/09 08:13:04;;;;;;;18.00;4.72;;;;;;;;;;5031959;28;93745;-74
2022/05/09 08:15:31;;;;;;;15.70;4.70;;;;;;;;;;5031460;28;93632;-74
2022/05/09 08:17:59;;;;;;;14.95;5.22;;;;;;;;;;5032535;28;92457;-73
2022/05/09 08:20:25;;;;;;;14.30;4.70;;;;;;;;;;5035087;28;94632;-73
2022/05/09 08:23:01;;;;;;;14.60;4.47;;;;;;;;;;5032265;28;92467;-73
2022/05/09 08:25:27;;;;;;;9.70;3.95;;;;;;;;;;5031678;28;94904;-74
2022/05/09 08:27:54;;;;;;;11.95;4.45;;;;;;;;;;5029689;28;96528;-74
2022/05/09 08:30:20;;;;;;;12.85;4.15;;;;;;;;;;5031989;28;93078;-74
2022/05/09 08:32:46;;;;;;;14.95;5.07;;;;;;;;;;5031633;28;92964;-74
2022/05/09 08:35:15;;;;;;;11.50;4.28;;;;;;;;;;5033813;28;94512;-73
2022/05/09 08:37:48;;;;;;;10.80;4.38;;;;;;;;;;5035483;28;92444;-74
2022/05/09 08:40:15;;;;;;;13.60;4.63;;;;;;;;;;5035016;28;94410;-74
2022/05/09 08:42:45;;;;;;;12.32;3.85;;;;;;;;;;5038187;28;94101;-74
2022/05/09 08:45:21;;;;;;;13.05;4.30;;;;;;;;;;5036140;28;94030;-74
2022/05/09 08:47:51;;;;;;;12.00;4.15;;;;;;;;;;5034233;28;94398;-74
2022/05/09 08:50:21;;;;;;;11.63;4.43;;;;;;;;;;5035591;28;92475;-74
2022/05/09 08:52:55;;;;;;;18.50;4.68;;;;;;;;;;5033800;28;95882;-74
2022/05/09 08:55:27;;;;;;;17.77;4.80;;;;;;;;;;5033991;28;93335;-74
2022/05/09 08:57:58;;;;;;;12.10;4.10;;;;;;;;;;5034975;28;92478;-74
2022/05/09 09:00:25;;;;;;;;;;;;;;;;;;5034981;28;93003;-74
2022/05/09 09:03:16;;;;;;;14.18;4.00;;;;;;;;;;5034605;28;124136;-74
2022/05/09 09:05:44;;;;;;;11.95;4.13;;;;;;;;;;5020420;28;92506;-74
2022/05/09 09:08:15;;;;;;;11.95;4.60;;;;;;;;;;5034963;28;94564;-74
2022/05/09 09:11:05;;;;;;;11.00;3.97;;;;;;;;;;5035188;28;91686;-74
2022/05/09 09:13:41;;;;;;;11.15;3.97;;;;;;;;;;5034323;28;92433;-74
2022/05/09 09:16:11;;;;;;;13.07;4.35;;;;;;;;;;5034192;28;94157;-74
2022/05/09 09:18:59;;;;;;;13.60;3.72;;;;;;;;;;5033023;28;94887;-74
2022/05/09 09:21:41;;;;;;;8.25;3.70;;;;;;;;;;5034966;28;96314;-74
2022/05/09 09:24:13;;;;;;;8.05;3.53;;;;;;;;;;5033126;27;94447;-74
2022/05/09 09:26:58;;;;;;;9.75;3.53;;;;;;;;;;5034824;28;92550;-74
2022/05/09 09:29:28;;;;;;;7.85;3.47;;;;;;;;;;5036232;28;92444;-74
2022/05/09 09:31:59;;;;;;;9.98;3.78;;;;;;;;;;5035032;28;92429;-74
2022/05/09 09:34:34;;;;;;;14.63;3.20;;;;;;;;;;5034200;28;93044;-74
2022/05/09 09:37:07;;;;;;;7.70;2.33;;;;;;;;;;5034807;27;93923;-74
2022/05/09 09:39:34;;;;;;;6.72;2.72;;;;;;;;;;5033757;28;92468;-74
2022/05/09 09:42:00;;;;;;;4.60;2.67;;;;;;;;;;5034747;28;93770;-74
2022/05/09 09:44:28;;;;;;;9.35;3.33;;;;;;;;;;5032070;28;97035;-74
2022/05/09 09:47:11;;;;;;;11.73;3.10;;;;;;;;;;5032965;28;92603;-74
2022/05/09 09:50:14;;;;;;;10.55;3.08;;;;;;;;;;5034696;28;93988;-74
2022/05/09 09:52:52;;;;;;;11.57;3.38;;;;;;;;;;5036206;28;93434;-74
2022/05/09 09:55:20;;;;;;;9.73;3.38;;;;;;;;;;5034605;28;93825;-74
2022/05/09 09:57:48;;;;;;;7.38;3.35;;;;;;;;;;5033418;28;93332;-74
2022/05/09 10:00:17;;;;;;;9.23;3.10;;;;;;;;;;5033794;28;92625;-74
2022/05/09 10:02:46;;;;;;;35.08;7.70;;;;;;;;;;5034531;28;93455;-74
2022/05/09 10:05:15;;;;;;;20.23;3.80;;;;;;;;;;5033561;28;93878;-74
2022/05/09 10:07:45;;;;;;;9.07;3.25;;;;;;;;;;5033942;28;92591;-74
2022/05/09 10:10:13;;;;;;;8.50;3.30;;;;;;;;;;5032983;28;94940;-74
2022/05/09 10:12:46;;;;;;;14.07;3.88;;;;;;;;;;5033307;28;94464;-74
2022/05/09 10:15:19;;;;;;;10.68;3.80;;;;;;;;;;5037417;28;92625;-74
2022/05/09 10:17:45;;;;;;;8.35;3.20;;;;;;;;;;5033258;28;93447;-74
2022/05/09 10:20:23;;;;;;;11.40;3.53;;;;;;;;;;5033453;28;92516;-74
2022/05/09 10:25:37;;;;;;;10.35;3.95;;;;;;;;;;5032348;28;94554;-74
2022/05/09 10:28:06;;;;;;;14.52;3.88;;;;;;;;;;5034138;28;91805;-74
2022/05/09 10:30:34;;;;;;;10.40;3.85;;;;;;;;;;5033772;28;93174;-74
2022/05/09 10:33:11;;;;;;;12.05;3.80;;;;;;;;;;5033164;28;94803;-74
2022/05/09 10:35:39;;;;;;;9.88;3.95;;;;;;;;;;5035334;28;95424;-74
2022/05/09 10:38:06;;;;;;;12.73;3.50;;;;;;;;;;5034494;28;94782;-74
2022/05/09 10:40:44;;;;;;;5.38;3.08;;;;;;;;;;5033175;28;92778;-74
2022/05/09 10:43:13;;;;;;;6.95;3.08;;;;;;;;;;5033831;28;93781;-75
2022/05/09 10:45:44;;;;;;;12.82;4.65;;;;;;;;;;5032945;28;93418;-74
2022/05/09 10:48:29;;;;;;;8.88;4.05;;;;;;;;;;5032455;28;92889;-74
2022/05/09 10:51:03;;;;;;;5.65;3.30;;;;;;;;;;5033734;28;93313;-74
2022/05/09 10:53:33;;;;;;;16.42;4.13;;;;;;;;;;5033604;28;93466;-74
2022/05/09 10:56:03;;;;;;;11.95;4.80;;;;;;;;;;5032975;28;92416;-74
2022/05/09 10:58:43;;;;;;;13.45;3.92;;;;;;;;;;5036103;27;93975;-74
2022/05/09 11:01:13;;;;;;;13.75;4.07;;;;;;;;;;5030965;28;94868;-74
2022/05/09 11:03:41;;;;;;;9.52;4.30;;;;;;;;;;5033105;28;96680;-73
2022/05/09 11:06:17;;;;;;;9.50;3.70;;;;;;;;;;5032539;28;93567;-73
2022/05/09 11:08:54;;;;;;;6.50;3.28;;;;;;;;;;5032426;28;92620;-73
2022/05/09 11:11:39;;;;;;;7.68;3.03;;;;;;;;;;5033428;28;93984;-73
2022/05/09 11:14:11;;;;;;;9.90;3.60;;;;;;;;;;5033073;28;94257;-73
2022/05/09 11:16:57;;;;;;;11.10;3.53;;;;;;;;;;5031620;28;92955;-75
2022/05/09 11:19:47;;;;;;;12.88;3.75;;;;;;;;;;5033450;28;93994;-75
2022/05/09 11:22:32;;;;;;;12.57;4.13;;;;;;;;;;5034493;28;93283;-75
2022/05/09 11:25:36;;;;;;;9.07;4.50;;;;;;;;;;5032416;28;94054;-75
2022/05/09 11:28:29;;;;;;;9.43;3.90;;;;;;;;;;4949127;28;96873;-76
2022/05/09 11:31:21;;;;;;;27.65;5.53;;;;;;;;;;5007333;28;92897;-75
2022/05/09 11:33:58;;;;;;;15.77;4.13;;;;;;;;;;5001365;28;94486;-73
2022/05/09 11:36:25;;;;;;;53.58;6.75;;;;;;;;;;5031690;28;94400;-73
2022/05/09 11:38:57;;;;;;;29.63;4.97;;;;;;;;;;5032839;28;92547;-72
2022/05/09 11:41:28;;;;;;;15.82;4.28;;;;;;;;;;5031859;28;93008;-73
2022/05/09 11:43:59;;;;;;;16.03;4.87;;;;;;;;;;5031346;28;93327;-72
2022/05/09 11:46:45;;;;;;;9.02;3.58;;;;;;;;;;5036297;28;91744;-73
2022/05/09 11:49:23;;;;;;;7.05;3.60;;;;;;;;;;5031896;28;93233;-73
2022/05/09 11:51:52;;;;;;;6.85;3.03;;;;;;;;;;5032221;28;92494;-73
2022/05/09 11:54:22;;;;;;;11.95;4.05;;;;;;;;;;5031121;28;94916;-73
2022/05/09 11:56:50;;;;;;;10.07;3.42;;;;;;;;;;5031986;28;93219;-73
2022/05/09 11:59:27;;;;;;;10.02;3.60;;;;;;;;;;5031847;28;92421;-73
2022/05/09 12:01:56;;;;;;;13.35;4.35;;;;;;;;;;5032425;28;93149;-73
2022/05/09 12:04:35;;;;;;;11.23;4.00;;;;;;;;;;5031244;28;94613;-73
2022/05/09 12:07:21;;;;;;;8.98;3.10;;;;;;;;;;5032093;28;92447;-73
2022/05/09 12:10:07;;;;;;;12.82;3.42;;;;;;;;;;5036812;27;93924;-73
2022/05/09 12:12:36;;;;;;;13.63;3.50;;;;;;;;;;5035599;28;91779;-73
2022/05/09 12:15:04;;;;;;;9.73;3.75;;;;;;;;;;5035618;28;92743;-73
2022/05/09 12:17:33;;;;;;;9.02;3.17;;;;;;;;;;5035316;27;94246;-73
2022/05/09 12:20:00;;;;;;;13.73;3.63;;;;;;;;;;5033315;28;94917;-73
2022/05/09 12:22:35;;;;;;;12.15;3.10;;;;;;;;;;5035484;28;96366;-73
2022/05/09 12:25:03;;;;;;;8.10;3.15;;;;;;;;;;5035230;28;93197;-73
2022/05/09 12:27:48;;;;;;;6.32;2.88;;;;;;;;;;5034560;28;92521;-73
2022/05/09 12:30:35;;;;;;;11.40;2.88;;;;;;;;;;5035054;28;93146;-73
2022/05/09 12:33:10;;;;;;;5.25;2.72;;;;;;;;;;5037749;28;94585;-73
2022/05/09 12:35:37;;;;;;;7.30;2.97;;;;;;;;;;5035423;28;93808;-73
2022/05/09 12:38:03;;;;;;;4.32;2.78;;;;;;;;;;5035708;28;93500;-74
2022/05/09 12:40:29;;;;;;;6.88;2.95;;;;;;;;;;5034363;28;93002;-74
2022/05/09 12:42:58;;;;;;;6.80;2.88;;;;;;;;;;5035258;27;93151;-74
2022/05/09 12:45:25;;;;;;;9.88;3.38;;;;;;;;;;5033151;28;95612;-74
2022/05/09 12:47:53;;;;;;;9.43;2.85;;;;;;;;;;5034879;28;92492;-74
2022/05/09 12:50:33;;;;;;;5.28;2.30;;;;;;;;;;5034917;28;93119;-74
2022/05/09 12:53:02;;;;;;;9.68;3.00;;;;;;;;;;5038348;28;94371;-74
2022/05/09 12:58:30;;;;;;;11.20;3.30;;;;;;;;;;5034772;28;93383;-74
2022/05/09 13:00:56;;;;;;;;;;;;;;;;;;5035305;28;92454;-74
2022/05/09 13:03:56;;;;;;;8.75;3.08;;;;;;;;;;5036952;28;93669;-74
2022/05/09 13:06:30;;;;;;;8.85;2.50;;;;;;;;;;5034804;28;93120;-74
2022/05/09 13:08:57;;;;;;;6.05;2.88;;;;;;;;;;5034448;28;92662;-74
2022/05/09 13:11:26;;;;;;;10.95;3.53;;;;;;;;;;5033236;28;94852;-74
2022/05/09 13:13:56;;;;;;;5.45;2.90;;;;;;;;;;5034745;28;94206;-74
2022/05/09 13:16:25;;;;;;;12.77;3.40;;;;;;;;;;5036695;28;92614;-74
2022/05/09 13:18:51;;;;;;;14.23;3.55;;;;;;;;;;5034209;28;93440;-74
2022/05/09 13:21:23;;;;;;;5.70;2.65;;;;;;;;;;5033792;27;92528;-74
2022/05/09 13:23:50;;;;;;;9.60;3.22;;;;;;;;;;5034141;27;94303;-74
2022/05/09 13:26:24;;;;;;;9.98;2.75;;;;;;;;;;5034581;28;94192;-74
2022/05/09 13:28:51;;;;;;;13.18;3.70;;;;;;;;;;5034339;28;92824;-74
2022/05/09 13:31:24;;;;;;;8.02;2.63;;;;;;;;;;5034687;28;93205;-74
2022/05/09 13:33:51;;;;;;;13.52;3.47;;;;;;;;;;5034143;28;93464;-74
2022/05/09 13:36:20;;;;;;;9.50;2.95;;;;;;;;;;5032201;28;95564;-74
2022/05/09 13:38:47;;;;;;;6.88;3.10;;;;;;;;;;5036702;28;95228;-74
2022/05/09 13:41:18;;;;;;;7.75;3.25;;;;;;;;;;5034641;28;92495;-74
2022/05/09 13:43:49;;;;;;;9.18;2.70;;;;;;;;;;5033361;28;93874;-74
2022/05/09 13:46:22;;;;;;;3.60;2.38;;;;;;;;;;5034250;28;94329;-74
2022/05/09 13:48:51;;;;;;;7.50;3.17;;;;;;;;;;5034279;28;92606;-74
2022/05/09 13:51:26;;;;;;;8.88;3.10;;;;;;;;;;5033262;28;92925;-74
2022/05/09 13:53:52;;;;;;;15.65;3.08;;;;;;;;;;5034637;28;93913;-74
2022/05/09 13:56:22;;;;;;;12.32;3.30;;;;;;;;;;5034390;28;92476;-74
2022/05/09 13:58:49;;;;;;;13.55;3.25;;;;;;;;;;5033357;28;93161;-74
2022/05/09 14:01:16;;;;;;;5.45;3.00;;;;;;;;;;5035192;28;95851;-74
2022/05/09 14:03:47;;;;;;;9.63;3.67;;;;;;;;;;5033238;28;95241;-74
2022/05/09 14:06:16;;;;;;;26.10;3.08;;;;;;;;;;5033778;28;93469;-74
2022/05/09 14:08:46;;;;;;;10.10;3.40;;;;;;;;;;5033880;28;93169;-74
2022/05/09 14:11:12;;;;;;;8.70;3.58;;;;;;;;;;5033487;28;93963;-74
2022/05/09 14:13:41;;;;;;;7.88;4.03;;;;;;;;;;5033185;28;93156;-74
2022/05/09 14:16:08;;;;;;;14.55;4.10;;;;;;;;;;5033590;28;93085;-74
2022/05/09 14:18:37;;;;;;;11.43;3.90;;;;;;;;;;5033461;28;93773;-74
2022/05/09 14:21:11;;;;;;;6.72;4.25;;;;;;;;;;5033827;28;94376;-74
2022/05/09 14:23:38;;;;;;;6.05;3.17;;;;;;;;;;5036778;28;93258;-74
2022/05/09 14:31:42;;;;;;;;;;;;;;;;;;5033789;27;94266;-74
2022/05/09 14:34:13;;;;;;;9.77;3.22;;;;;;;;;;5033677;28;123702;-74
2022/05/09 14:36:39;;;;;;;8.50;3.42;;;;;;;;;;5033062;28;92514;-74
2022/05/09 14:39:24;;;;;;;9.98;4.22;;;;;;;;;;5032967;28;93795;-74
2022/05/09 14:42:03;;;;;;;9.45;3.55;;;;;;;;;;5033009;28;93434;-74
2022/05/09 14:44:34;;;;;;;7.20;3.05;;;;;;;;;;5034007;28;91701;-74
2022/05/09 14:47:10;;;;;;;11.35;3.90;;;;;;;;;;5035747;28;93654;-74
2022/05/09 14:50:06;;;;;;;11.38;3.70;;;;;;;;;;5033567;28;93309;-75
2022/05/09 14:52:39;;;;;;;8.93;3.45;;;;;;;;;;5031870;28;94813;-74
2022/05/09 14:57:57;;;;;;;12.23;2.90;;;;;;;;;;5033372;28;92416;-74
2022/05/09 15:00:28;;;;;;;8.38;3.20;;;;;;;;;;5032403;28;93926;-74
2022/05/09 15:02:56;;;;;;;6.50;3.35;;;;;;;;;;5033076;28;93686;-74
2022/05/09 15:05:23;;;;;;;5.82;2.65;;;;;;;;;;5033106;28;92508;-74
2022/05/09 15:07:49;;;;;;;8.55;3.15;;;;;;;;;;5035681;28;94652;-74
2022/05/09 15:10:16;;;;;;;5.18;3.08;;;;;;;;;;5033744;28;91763;-74
2022/05/09 15:12:43;;;;;;;7.30;3.08;;;;;;;;;;5032830;28;93078;-74